createdAt,value
2017-08-01T00:01:57.417Z,14.33
2017-08-01T00:04:24.737Z,12.50
2017-08-01T00:06:52.054Z,21.80
2017-08-01T00:09:19.364Z,16.23
2017-08-01T00:11:46.733Z,14.53
2017-08-01T00:14:14.070Z,13.50
2017-08-01T00:16:41.355Z,18.27
2017-08-01T00:19:08.681Z,16.30
2017-08-01T00:21:35.985Z,13.23
2017-08-01T00:24:03.834Z,15.53
2017-08-01T00:26:31.368Z,16.63
2017-08-01T00:28:58.912Z,17.70
2017-08-01T00:31:26.239Z,14.83
2017-08-01T00:33:53.588Z,13.43
2017-08-01T00:36:20.946Z,14.00
2017-08-01T00:38:48.261Z,15.40
2017-08-01T00:41:15.601Z,15.33
2017-08-01T00:43:42.891Z,15.93
2017-08-01T00:46:10.225Z,17.50
2017-08-01T00:48:37.723Z,15.10
2017-08-01T00:51:05.061Z,16.17
2017-08-01T00:53:32.400Z,13.20
2017-08-01T00:55:59.707Z,14.50
2017-08-01T00:58:27.013Z,16.93
2017-08-01T01:00:54.332Z,13.60
2017-08-01T01:03:21.640Z,17.13
2017-08-01T01:05:48.956Z,20.93
2017-08-01T01:08:16.277Z,13.63
2017-08-01T01:10:43.597Z,15.70
2017-08-01T01:13:10.961Z,14.30
2017-08-01T01:15:38.272Z,17.43
2017-08-01T01:18:05.591Z,18.70
2017-08-01T01:20:32.901Z,13.20
2017-08-01T01:23:00.251Z,13.27
2017-08-01T01:25:27.561Z,13.27
2017-08-01T01:27:54.893Z,15.10
2017-08-01T01:30:22.578Z,16.53
2017-08-01T01:32:49.873Z,15.97
2017-08-01T01:35:17.182Z,14.17
2017-08-01T01:37:44.471Z,14.63
2017-08-01T01:40:11.812Z,15.97
2017-08-01T01:42:39.135Z,13.53
2017-08-01T01:45:06.471Z,18.43
2017-08-01T01:47:33.781Z,15.60
2017-08-01T01:50:01.126Z,16.43
2017-08-01T01:52:28.425Z,15.23
2017-08-01T01:54:55.776Z,16.10
2017-08-01T01:57:23.095Z,19.00
2017-08-01T01:59:50.737Z,13.60
2017-08-01T02:02:18.428Z,16.83
2017-08-01T02:04:45.736Z,19.03
2017-08-01T02:07:13.093Z,16.23
2017-08-01T02:09:40.399Z,19.57
2017-08-01T02:12:07.903Z,16.07
2017-08-01T02:14:35.213Z,17.10
2017-08-01T02:17:02.554Z,17.80
2017-08-01T02:19:29.868Z,12.93
2017-08-01T02:21:57.177Z,14.37
2017-08-01T02:24:24.562Z,15.87
2017-08-01T02:26:51.907Z,15.60
2017-08-01T02:29:19.265Z,17.10
2017-08-01T02:31:46.580Z,16.43
2017-08-01T02:34:13.962Z,20.10
2017-08-01T02:36:41.299Z,20.30
2017-08-01T02:39:09.009Z,17.20
2017-08-01T02:41:36.337Z,18.63
2017-08-01T02:44:03.638Z,14.70
2017-08-01T02:46:30.962Z,15.13
2017-08-01T02:48:58.282Z,16.23
2017-08-01T02:51:25.596Z,21.57
2017-08-01T02:53:52.905Z,20.10
2017-08-01T02:56:20.233Z,35.13
2017-08-01T02:58:47.536Z,23.40
2017-08-01T03:01:14.934Z,23.63
2017-08-01T03:03:42.261Z,46.63
2017-08-01T03:06:09.552Z,27.90
2017-08-01T03:08:36.885Z,33.07
2017-08-01T03:11:04.204Z,21.43
2017-08-01T03:13:31.515Z,22.03
2017-08-01T03:15:58.824Z,20.80
2017-08-01T03:18:26.179Z,21.80
2017-08-01T03:20:53.522Z,16.27
2017-08-01T03:23:20.903Z,21.83
2017-08-01T03:25:48.199Z,20.87
2017-08-01T03:28:15.561Z,23.17
2017-08-01T03:30:42.861Z,23.03
2017-08-01T03:33:10.159Z,24.13
2017-08-01T03:35:37.493Z,22.53
2017-08-01T03:38:04.801Z,21.70
2017-08-01T03:40:32.153Z,19.03
2017-08-01T03:43:00.071Z,24.53
2017-08-01T03:45:27.408Z,20.50
2017-08-01T03:47:54.704Z,22.47
2017-08-01T03:50:22.045Z,26.73
2017-08-01T03:52:49.360Z,25.07
2017-08-01T03:55:16.684Z,22.23
2017-08-01T03:57:43.995Z,24.27
2017-08-01T04:00:11.291Z,23.37
2017-08-01T04:02:38.623Z,20.70
2017-08-01T04:05:06.009Z,25.57
2017-08-01T04:07:33.334Z,29.10
2017-08-01T04:10:00.652Z,24.40
2017-08-01T04:12:28.029Z,22.47
2017-08-01T04:14:55.336Z,25.67
2017-08-01T04:17:22.963Z,25.20
2017-08-01T04:19:50.289Z,23.90
2017-08-01T04:22:17.593Z,22.77
2017-08-01T04:24:44.900Z,24.53
2017-08-01T04:27:12.243Z,24.17
2017-08-01T04:29:39.589Z,26.00
2017-08-01T04:32:07.531Z,21.73
2017-08-01T04:34:34.864Z,23.33
2017-08-01T04:37:02.177Z,25.87
2017-08-01T04:39:29.506Z,23.50
2017-08-01T04:41:56.815Z,26.17
2017-08-01T04:44:24.472Z,26.20
2017-08-01T04:46:51.809Z,26.57
2017-08-01T04:49:19.729Z,30.10
2017-08-01T04:51:47.053Z,34.70
2017-08-01T04:54:14.535Z,26.40
2017-08-01T04:56:42.006Z,22.43
2017-08-01T04:59:09.340Z,18.53
2017-08-01T05:01:36.639Z,21.93
2017-08-01T05:04:03.956Z,20.70
2017-08-01T05:06:31.256Z,19.87
2017-08-01T05:08:58.580Z,20.30
2017-08-01T05:11:25.913Z,18.57
2017-08-01T05:13:53.274Z,13.20
2017-08-01T05:16:20.610Z,16.70
2017-08-01T05:18:47.975Z,17.53
2017-08-01T05:21:15.293Z,18.57
2017-08-01T05:23:42.835Z,17.93
2017-08-01T05:26:10.187Z,20.43
2017-08-01T05:28:37.571Z,16.80
2017-08-01T05:31:04.912Z,14.83
2017-08-01T05:33:32.237Z,15.20
2017-08-01T05:35:59.609Z,17.37
2017-08-01T05:38:26.935Z,16.07
2017-08-01T05:40:54.281Z,18.97
2017-08-01T05:43:21.600Z,12.80
2017-08-01T05:45:48.924Z,14.13
2017-08-01T05:48:16.252Z,12.63
2017-08-01T05:50:43.570Z,13.83
2017-08-01T05:53:10.872Z,10.30
2017-08-01T05:55:38.163Z,9.07
2017-08-01T05:58:05.543Z,12.77
2017-08-01T06:00:32.845Z,10.60
2017-08-01T06:03:00.212Z,10.23
2017-08-01T06:05:27.535Z,10.57
2017-08-01T06:07:54.868Z,15.47
2017-08-01T06:10:22.239Z,12.10
2017-08-01T06:12:49.566Z,10.10
2017-08-01T06:15:16.919Z,9.97
2017-08-01T06:17:44.245Z,11.93
2017-08-01T06:20:11.589Z,14.07
2017-08-01T06:22:38.912Z,14.20
2017-08-01T06:25:06.293Z,10.97
2017-08-01T06:27:33.627Z,11.73
2017-08-01T06:30:00.952Z,9.30
2017-08-01T06:32:28.305Z,8.50
2017-08-01T06:34:55.945Z,6.63
2017-08-01T06:37:23.302Z,11.93
2017-08-01T06:39:50.595Z,9.00
2017-08-01T06:42:17.924Z,12.23
2017-08-01T06:44:45.241Z,8.10
2017-08-01T06:47:12.549Z,10.30
2017-08-01T06:49:39.852Z,9.00
2017-08-01T06:52:07.171Z,11.30
2017-08-01T06:54:34.493Z,11.33
2017-08-01T06:57:01.803Z,6.63
2017-08-01T06:59:29.139Z,11.27
2017-08-01T07:01:56.488Z,9.10
2017-08-01T07:04:23.838Z,10.10
2017-08-01T07:06:51.162Z,7.57
2017-08-01T07:09:18.618Z,13.50
2017-08-01T07:11:45.937Z,9.17
2017-08-01T07:14:13.298Z,9.57
2017-08-01T07:16:40.612Z,11.50
2017-08-01T07:19:08.397Z,12.17
2017-08-01T07:21:35.703Z,10.63
2017-08-01T07:24:02.992Z,9.37
2017-08-01T07:26:30.585Z,11.50
2017-08-01T07:28:57.871Z,8.10
2017-08-01T07:31:25.196Z,7.30
2017-08-01T07:33:52.532Z,8.00
2017-08-01T07:36:19.872Z,8.87
2017-08-01T07:38:47.205Z,9.50
2017-08-01T07:41:14.532Z,7.73
2017-08-01T07:43:41.826Z,6.00
2017-08-01T07:46:09.141Z,7.47
2017-08-01T07:48:36.481Z,14.20
2017-08-01T07:51:03.817Z,9.77
2017-08-01T07:53:31.156Z,9.00
2017-08-01T07:55:58.497Z,8.23
2017-08-01T07:58:25.867Z,10.87
2017-08-01T08:00:53.473Z,9.60
2017-08-01T08:03:20.868Z,13.63
2017-08-01T08:05:48.171Z,9.87
2017-08-01T08:08:15.577Z,12.53
2017-08-01T08:10:43.070Z,8.37
2017-08-01T08:13:10.375Z,8.37
2017-08-01T08:15:37.680Z,9.40
2017-08-01T08:18:04.992Z,8.50
2017-08-01T08:20:32.341Z,8.70
2017-08-01T08:22:59.763Z,10.40
2017-08-01T08:25:27.113Z,7.63
2017-08-01T08:27:54.450Z,10.23
2017-08-01T08:30:21.845Z,9.07
2017-08-01T08:32:49.254Z,7.30
2017-08-01T08:35:16.607Z,6.10
2017-08-01T08:37:43.901Z,5.40
2017-08-01T08:40:11.232Z,7.50
2017-08-01T08:42:38.527Z,5.13
2017-08-01T08:45:05.845Z,6.40
2017-08-01T08:47:33.165Z,7.43
2017-08-01T08:50:00.485Z,6.33
2017-08-01T08:52:27.792Z,7.93
2017-08-01T08:54:55.093Z,7.27
2017-08-01T08:57:22.409Z,8.67
2017-08-01T08:59:49.723Z,13.70
2017-08-01T09:02:17.032Z,6.50
2017-08-01T09:04:44.353Z,5.30
2017-08-01T09:07:11.685Z,7.17
2017-08-01T09:09:38.977Z,7.23
2017-08-01T09:12:06.290Z,5.70
2017-08-01T09:14:33.610Z,7.57
2017-08-01T09:17:00.917Z,8.80
2017-08-01T09:19:28.380Z,7.23
2017-08-01T09:21:55.677Z,6.73
2017-08-01T09:24:22.984Z,6.20
2017-08-01T09:26:50.295Z,6.37
2017-08-01T09:29:17.606Z,6.77
2017-08-01T09:31:44.918Z,5.47
2017-08-01T09:34:12.741Z,7.17
2017-08-01T09:36:40.316Z,7.80
2017-08-01T09:39:07.657Z,12.30
2017-08-01T09:41:34.951Z,5.30
2017-08-01T09:44:02.275Z,8.40
2017-08-01T09:46:29.567Z,13.70
2017-08-01T09:48:56.946Z,8.10
2017-08-01T09:51:24.241Z,5.33
2017-08-01T09:53:51.527Z,5.53
2017-08-01T09:56:18.833Z,4.90
2017-08-01T09:58:46.160Z,5.03
2017-08-01T10:01:13.478Z,7.37
2017-08-01T10:03:40.764Z,7.40
2017-08-01T10:06:08.404Z,6.27
2017-08-01T10:08:35.720Z,7.87
2017-08-01T10:11:03.036Z,11.53
2017-08-01T10:13:30.328Z,5.80
2017-08-01T10:15:57.674Z,6.30
2017-08-01T10:18:24.997Z,6.00
2017-08-01T10:20:52.327Z,10.57
2017-08-01T10:23:19.635Z,5.33
2017-08-01T10:25:46.932Z,7.27
2017-08-01T10:28:14.274Z,7.00
2017-08-01T10:30:41.937Z,7.40
2017-08-01T10:33:09.232Z,5.93
2017-08-01T10:35:36.565Z,7.97
2017-08-01T10:38:03.880Z,5.20
2017-08-01T10:40:31.165Z,9.43
2017-08-01T10:42:58.499Z,12.83
2017-08-01T10:45:25.962Z,10.10
2017-08-01T10:47:53.329Z,10.03
2017-08-01T10:50:20.637Z,6.20
2017-08-01T10:52:47.967Z,6.77
2017-08-01T10:55:15.264Z,11.67
2017-08-01T10:57:42.588Z,9.07
2017-08-01T11:00:09.920Z,7.87
2017-08-01T11:02:37.257Z,7.20
2017-08-01T11:05:04.600Z,8.57
2017-08-01T11:07:31.899Z,7.87
2017-08-01T11:09:59.210Z,7.93
2017-08-01T11:12:26.528Z,9.17
2017-08-01T11:14:53.880Z,6.60
2017-08-01T11:17:21.200Z,8.77
2017-08-01T11:19:48.585Z,8.43
2017-08-01T11:22:15.894Z,8.83
2017-08-01T11:24:44.155Z,7.90
2017-08-01T11:27:11.480Z,9.60
2017-08-01T11:29:38.794Z,7.30
2017-08-01T11:32:06.113Z,7.60
2017-08-01T11:34:33.417Z,7.40
2017-08-01T11:37:00.757Z,9.70
2017-08-01T11:39:28.116Z,8.80
2017-08-01T11:41:55.424Z,7.60
2017-08-01T11:44:22.762Z,8.93
2017-08-01T11:46:50.082Z,9.33
2017-08-01T11:49:17.347Z,9.33
2017-08-01T11:51:44.656Z,6.90
2017-08-01T11:54:11.958Z,8.50
2017-08-01T11:56:39.285Z,7.63
2017-08-01T11:59:06.612Z,8.07
2017-08-01T12:01:33.944Z,8.20
2017-08-01T12:04:01.228Z,7.00
2017-08-01T12:06:28.749Z,8.10
2017-08-01T12:08:56.071Z,9.07
2017-08-01T12:11:23.537Z,6.90
2017-08-01T12:13:50.851Z,9.27
2017-08-01T12:16:18.144Z,18.43
2017-08-01T12:18:45.453Z,8.60
2017-08-01T12:21:12.771Z,6.83
2017-08-01T12:23:40.070Z,9.93
2017-08-01T12:26:07.364Z,9.87
2017-08-01T12:28:34.689Z,10.60
2017-08-01T12:31:01.986Z,8.43
2017-08-01T12:33:29.308Z,7.77
2017-08-01T12:35:56.602Z,5.63
2017-08-01T12:38:23.911Z,9.30
2017-08-01T12:40:51.197Z,6.83
2017-08-01T12:43:18.503Z,6.83
2017-08-01T12:45:45.803Z,6.37
2017-08-01T12:48:13.435Z,7.53
2017-08-01T12:50:41.252Z,5.40
2017-08-01T12:53:08.536Z,5.80
2017-08-01T12:55:35.888Z,4.83
2017-08-01T12:58:03.208Z,7.07
2017-08-01T13:00:30.551Z,6.03
2017-08-01T13:02:57.831Z,6.87
2017-08-01T13:05:25.148Z,7.43
2017-08-01T13:07:52.437Z,4.47
2017-08-01T13:10:19.745Z,5.40
2017-08-01T13:12:47.045Z,4.90
2017-08-01T13:15:14.357Z,5.10
2017-08-01T13:17:41.653Z,5.93
2017-08-01T13:20:09.007Z,9.23
2017-08-01T13:22:36.321Z,7.20
2017-08-01T13:25:03.619Z,5.07
2017-08-01T13:27:30.947Z,5.93
2017-08-01T13:29:58.322Z,5.87
2017-08-01T13:32:25.630Z,6.10
2017-08-01T13:34:52.922Z,8.20
2017-08-01T13:37:20.233Z,6.10
2017-08-01T13:39:47.512Z,7.57
2017-08-01T13:42:14.868Z,6.13
2017-08-01T13:44:42.186Z,7.50
2017-08-01T13:47:09.523Z,7.50
2017-08-01T13:49:36.861Z,6.83
2017-08-01T13:52:04.135Z,8.13
2017-08-01T13:54:31.446Z,5.70
2017-08-01T13:56:58.756Z,11.00
2017-08-01T13:59:26.061Z,10.50
2017-08-01T14:01:53.386Z,9.23
2017-08-01T14:04:20.722Z,9.33
2017-08-01T14:06:48.037Z,6.63
2017-08-01T14:09:15.345Z,6.90
2017-08-01T14:11:42.637Z,8.57
2017-08-01T14:14:09.981Z,8.23
2017-08-01T14:16:37.311Z,6.97
2017-08-01T14:19:04.633Z,6.57
2017-08-01T14:21:31.940Z,6.60
2017-08-01T14:23:59.258Z,9.43
2017-08-01T14:26:26.555Z,6.97
2017-08-01T14:28:53.862Z,9.20
2017-08-01T14:31:21.153Z,9.70
2017-08-01T14:33:48.478Z,11.07
2017-08-01T14:36:15.785Z,8.97
2017-08-01T14:38:43.120Z,6.63
2017-08-01T14:41:10.709Z,6.53
2017-08-01T14:43:38.030Z,9.60
2017-08-01T14:46:05.344Z,10.95
2017-08-01T14:48:32.645Z,8.50
2017-08-01T14:50:59.953Z,7.10
2017-08-01T14:53:27.267Z,5.60
2017-08-01T14:55:54.600Z,5.60
2017-08-01T14:58:21.921Z,6.93
2017-08-01T15:00:49.293Z,7.18
2017-08-01T15:03:16.583Z,8.02
2017-08-01T15:05:43.899Z,6.10
2017-08-01T15:08:11.206Z,8.70
2017-08-01T15:10:38.832Z,6.72
2017-08-01T15:13:06.166Z,8.48
2017-08-01T15:15:33.461Z,8.00
2017-08-01T15:18:00.779Z,7.07
2017-08-01T15:20:28.067Z,6.47
2017-08-01T15:22:55.385Z,6.22
2017-08-01T15:25:22.682Z,9.27
2017-08-01T15:27:49.997Z,10.60
2017-08-01T15:30:17.298Z,6.00
2017-08-01T15:32:44.609Z,5.82
2017-08-01T15:35:11.907Z,10.88
2017-08-01T15:37:39.248Z,11.97
2017-08-01T15:40:06.584Z,6.72
2017-08-01T15:42:33.886Z,7.87
2017-08-01T15:45:01.193Z,7.13
2017-08-01T15:47:28.515Z,7.20
2017-08-01T15:49:55.817Z,10.23
2017-08-01T15:52:23.123Z,7.90
2017-08-01T15:54:50.459Z,6.80
2017-08-01T15:57:17.745Z,8.57
2017-08-01T15:59:45.053Z,6.60
2017-08-01T16:02:12.365Z,5.80
2017-08-01T16:04:39.659Z,7.10
2017-08-01T16:07:06.972Z,10.50
2017-08-01T16:09:34.329Z,7.23
2017-08-01T16:12:01.640Z,10.30
2017-08-01T16:14:28.973Z,8.10
2017-08-01T16:16:56.263Z,6.40
2017-08-01T16:19:23.571Z,9.57
2017-08-01T16:21:50.883Z,7.47
2017-08-01T16:24:18.191Z,15.17
2017-08-01T16:26:45.484Z,8.53
2017-08-01T16:29:12.794Z,11.17
2017-08-01T16:31:40.097Z,6.40
2017-08-01T16:34:07.389Z,11.70
2017-08-01T16:36:34.692Z,8.90
2017-08-01T16:39:01.994Z,7.63
2017-08-01T16:41:29.324Z,9.73
2017-08-01T16:43:56.621Z,9.20
2017-08-01T16:46:23.925Z,8.37
2017-08-01T16:48:51.667Z,7.57
2017-08-01T16:51:19.295Z,8.67
2017-08-01T16:53:46.585Z,9.50
2017-08-01T16:56:13.942Z,9.57
2017-08-01T16:58:41.231Z,8.07
2017-08-01T17:01:08.579Z,9.03
2017-08-01T17:03:36.189Z,7.93
2017-08-01T17:06:03.476Z,7.00
2017-08-01T17:08:30.800Z,9.40
2017-08-01T17:10:58.117Z,6.37
2017-08-01T17:13:25.438Z,13.13
2017-08-01T17:15:52.725Z,8.33
2017-08-01T17:18:20.065Z,6.80
2017-08-01T17:20:47.677Z,5.10
2017-08-01T17:23:15.002Z,12.07
2017-08-01T17:25:42.673Z,6.80
2017-08-01T17:28:09.996Z,13.33
2017-08-01T17:30:37.276Z,13.07
2017-08-01T17:33:04.630Z,8.00
2017-08-01T17:35:31.961Z,8.27
2017-08-01T17:37:59.290Z,11.70
2017-08-01T17:40:26.581Z,5.23
2017-08-01T17:42:53.938Z,6.00
2017-08-01T17:45:21.225Z,8.60
2017-08-01T17:47:48.512Z,14.53
2017-08-01T17:50:15.834Z,10.23
2017-08-01T17:52:43.538Z,9.13
2017-08-01T17:55:11.026Z,18.67
2017-08-01T17:57:38.320Z,12.00
2017-08-01T18:00:05.800Z,20.77
2017-08-01T18:02:33.637Z,7.10
2017-08-01T18:05:01.285Z,6.77
2017-08-01T18:07:28.571Z,5.37
2017-08-01T18:09:55.892Z,6.07
2017-08-01T18:12:23.189Z,7.10
2017-08-01T18:14:50.500Z,5.57
2017-08-01T18:17:17.798Z,10.60
2017-08-01T18:19:45.131Z,7.13
2017-08-01T18:22:12.455Z,8.57
2017-08-01T18:24:39.752Z,6.43
2017-08-01T18:27:07.054Z,9.30
2017-08-01T18:29:34.360Z,8.90
2017-08-01T18:32:01.674Z,7.10
2017-08-01T18:34:28.975Z,7.23
2017-08-01T18:36:56.412Z,10.20
2017-08-01T18:39:23.779Z,5.77
2017-08-01T18:41:51.093Z,9.03
2017-08-01T18:44:18.441Z,4.17
2017-08-01T18:46:45.770Z,6.20
2017-08-01T18:49:13.070Z,9.30
2017-08-01T18:51:40.606Z,8.83
2017-08-01T18:54:07.964Z,6.90
2017-08-01T18:56:35.302Z,5.10
2017-08-01T18:59:02.593Z,8.90
2017-08-01T19:01:30.009Z,7.87
2017-08-01T19:03:57.295Z,10.57
2017-08-01T19:06:24.617Z,8.47
2017-08-01T19:08:51.971Z,10.20
2017-08-01T19:11:19.321Z,9.17
2017-08-01T19:13:46.663Z,7.97
2017-08-01T19:16:13.971Z,10.77
2017-08-01T19:18:43.282Z,6.13
2017-08-01T19:21:10.598Z,5.70
2017-08-01T19:23:37.944Z,5.87
2017-08-01T19:26:05.258Z,5.40
2017-08-01T19:28:32.581Z,6.47
2017-08-01T19:30:59.877Z,7.77
2017-08-01T19:33:27.269Z,8.20
2017-08-01T19:35:54.684Z,9.10
2017-08-01T19:38:22.926Z,5.70
2017-08-01T19:40:50.271Z,8.23
2017-08-01T19:43:17.630Z,19.00
2017-08-01T19:45:44.953Z,15.30
2017-08-01T19:48:12.293Z,9.80
2017-08-01T19:50:39.637Z,9.67
2017-08-01T19:53:06.924Z,11.63
2017-08-01T19:55:34.243Z,9.73
2017-08-01T19:58:01.557Z,10.27
2017-08-01T20:00:28.890Z,7.87
2017-08-01T20:02:56.210Z,7.50
2017-08-01T20:05:23.517Z,6.83
2017-08-01T20:07:50.810Z,7.93
2017-08-01T20:10:18.158Z,5.63
2017-08-01T20:12:45.486Z,4.70
2017-08-01T20:15:12.802Z,8.67
2017-08-01T20:17:40.098Z,7.90
2017-08-01T20:20:07.431Z,11.50
2017-08-01T20:22:34.736Z,5.80
2017-08-01T20:25:02.055Z,7.70
2017-08-01T20:27:29.549Z,10.73
2017-08-01T20:29:56.824Z,6.70
2017-08-01T20:32:24.336Z,8.03
2017-08-01T20:34:51.649Z,6.10
2017-08-01T20:37:18.957Z,6.33
2017-08-01T20:39:46.247Z,11.77
2017-08-01T20:42:13.611Z,11.20
2017-08-01T20:44:40.930Z,11.30
2017-08-01T20:47:08.280Z,11.30
2017-08-01T20:49:35.609Z,10.90
2017-08-01T20:52:03.263Z,13.27
2017-08-01T20:54:30.894Z,15.87
2017-08-01T20:56:58.226Z,10.23
2017-08-01T20:59:25.689Z,11.40
2017-08-01T21:01:53.002Z,8.03
2017-08-01T21:04:20.321Z,7.90
2017-08-01T21:06:47.621Z,9.43
2017-08-01T21:09:15.283Z,10.33
2017-08-01T21:11:42.582Z,6.87
2017-08-01T21:14:09.884Z,7.17
2017-08-01T21:16:37.168Z,5.43
2017-08-01T21:19:04.479Z,6.10
2017-08-01T21:21:31.760Z,6.33
2017-08-01T21:23:59.076Z,9.20
2017-08-01T21:26:26.376Z,11.80
2017-08-01T21:28:53.708Z,13.07
2017-08-01T21:31:21.005Z,7.10
2017-08-01T21:33:48.338Z,5.60
2017-08-01T21:36:15.616Z,6.97
2017-08-01T21:38:42.947Z,8.87
2017-08-01T21:41:10.271Z,6.23
2017-08-01T21:43:37.589Z,6.97
2017-08-01T21:46:04.884Z,7.67
2017-08-01T21:48:32.217Z,10.70
2017-08-01T21:51:00.349Z,6.40
2017-08-01T21:53:27.646Z,7.03
2017-08-01T21:55:54.948Z,8.33
2017-08-01T21:58:22.305Z,6.47
2017-08-01T22:00:49.637Z,6.97
2017-08-01T22:03:16.968Z,9.10
2017-08-01T22:05:44.272Z,5.47
2017-08-01T22:08:11.768Z,6.47
2017-08-01T22:10:39.406Z,7.30
2017-08-01T22:13:06.704Z,5.40
2017-08-01T22:15:34.009Z,10.40
2017-08-01T22:18:01.300Z,7.77
2017-08-01T22:20:28.597Z,6.80
2017-08-01T22:22:55.912Z,5.63
2017-08-01T22:25:23.250Z,5.13
2017-08-01T22:27:50.558Z,7.40
2017-08-01T22:30:17.839Z,6.27
2017-08-01T22:32:45.273Z,6.33
2017-08-01T22:35:12.596Z,7.77
2017-08-01T22:37:39.908Z,5.77
2017-08-01T22:40:07.394Z,5.67
2017-08-01T22:42:34.696Z,8.23
2017-08-01T22:45:02.254Z,5.63
2017-08-01T22:47:29.559Z,6.90
2017-08-01T22:49:56.864Z,6.20
2017-08-01T22:52:24.151Z,6.73
2017-08-01T22:54:51.470Z,9.50
2017-08-01T22:57:19.073Z,9.70
2017-08-01T22:59:46.527Z,7.00
2017-08-01T23:02:13.820Z,6.97
2017-08-01T23:04:41.132Z,6.50
2017-08-01T23:07:08.435Z,7.13
2017-08-01T23:09:35.905Z,5.63
2017-08-01T23:12:03.189Z,5.60
2017-08-01T23:14:30.498Z,6.40
2017-08-01T23:16:57.846Z,6.60
2017-08-01T23:19:25.175Z,11.63
2017-08-01T23:21:52.517Z,12.03
2017-08-01T23:24:19.883Z,8.50
2017-08-01T23:26:47.180Z,8.67
2017-08-01T23:29:14.489Z,10.07
2017-08-01T23:31:41.853Z,6.47
2017-08-01T23:34:09.157Z,6.43
2017-08-01T23:36:36.455Z,7.97
2017-08-01T23:39:03.781Z,6.50
2017-08-01T23:41:31.110Z,5.80
2017-08-01T23:43:58.462Z,8.13
2017-08-01T23:46:25.776Z,12.07
2017-08-01T23:48:53.072Z,5.97
2017-08-01T23:51:20.395Z,8.23
2017-08-01T23:53:47.702Z,8.00
2017-08-01T23:56:14.987Z,6.70
2017-08-01T23:58:42.280Z,10.20
